createdAt,value
2019-02-15T00:01:00.912Z,0.23
2019-02-15T00:03:28.313Z,0.18
2019-02-15T00:05:55.771Z,0.17
2019-02-15T00:08:23.166Z,0.15
2019-02-15T00:10:50.585Z,0.13
2019-02-15T00:13:17.980Z,0.03
2019-02-15T00:15:45.433Z,-0.05
2019-02-15T00:18:41.731Z,-0.08
2019-02-15T00:21:20.445Z,-0.11
2019-02-15T00:23:47.898Z,-0.07
2019-02-15T00:26:16.646Z,-0.03
2019-02-15T00:28:44.489Z,-0.08
2019-02-15T00:31:14.972Z,-0.09
2019-02-15T00:33:42.458Z,-0.10
2019-02-15T00:36:10.002Z,-0.08
2019-02-15T00:38:37.403Z,-0.20
2019-02-15T00:41:05.103Z,-0.19
2019-02-15T00:43:39.994Z,-0.23
2019-02-15T00:46:32.342Z,-0.31
2019-02-15T00:49:03.100Z,-0.26
2019-02-15T00:52:01.695Z,-0.29
2019-02-15T00:54:57.889Z,-0.27
2019-02-15T00:57:44.961Z,-0.24
2019-02-15T01:00:42.280Z,-0.30
2019-02-15T01:03:42.074Z,-0.33
2019-02-15T01:06:29.152Z,-0.35
2019-02-15T01:09:24.803Z,-0.38
2019-02-15T01:12:23.111Z,-0.55
2019-02-15T01:14:59.668Z,-0.37
2019-02-15T01:17:30.929Z,-0.37
2019-02-15T01:20:06.502Z,-0.37
2019-02-15T01:22:50.957Z,-0.44
2019-02-15T01:25:28.619Z,-0.55
2019-02-15T01:28:06.749Z,-0.62
2019-02-15T01:30:57.522Z,-0.67
2019-02-15T01:33:49.399Z,-0.54
2019-02-15T01:36:48.379Z,-0.52
2019-02-15T01:40:00.805Z,-0.53
2019-02-15T01:43:04.009Z,-0.56
2019-02-15T01:45:59.829Z,-0.48
2019-02-15T01:48:25.400Z,-0.53
2019-02-15T01:50:59.512Z,-0.37
2019-02-15T01:53:35.253Z,-0.27
2019-02-15T01:56:13.064Z,-0.23
2019-02-15T01:58:52.073Z,-0.32
2019-02-15T02:01:28.899Z,-0.23
2019-02-15T02:04:01.034Z,-0.29
2019-02-15T02:06:41.820Z,-0.41
2019-02-15T02:09:21.587Z,-0.60
2019-02-15T02:11:53.534Z,-0.70
2019-02-15T02:14:25.575Z,-0.83
2019-02-15T02:17:03.975Z,-0.84
2019-02-15T02:19:40.425Z,-0.70
2019-02-15T02:22:15.561Z,-0.63
2019-02-15T02:24:49.485Z,-0.60
2019-02-15T02:27:28.286Z,-0.60
2019-02-15T02:29:58.746Z,-0.53
2019-02-15T02:32:36.669Z,-0.53
2019-02-15T02:35:19.155Z,-0.55
2019-02-15T02:38:03.084Z,-0.65
2019-02-15T02:40:37.772Z,-0.79
2019-02-15T02:43:07.448Z,-0.74
2019-02-15T02:45:34.917Z,-0.82
2019-02-15T02:48:02.341Z,-0.75
2019-02-15T02:50:29.751Z,-0.78
2019-02-15T02:53:01.573Z,-0.85
2019-02-15T02:55:35.963Z,-0.77
2019-02-15T02:58:08.095Z,-0.90
2019-02-15T03:00:40.833Z,-0.93
2019-02-15T03:03:11.351Z,-1.01
2019-02-15T03:05:47.324Z,-0.93
2019-02-15T03:08:24.340Z,-0.96
2019-02-15T03:10:53.369Z,-0.88
2019-02-15T03:13:20.936Z,-0.79
2019-02-15T03:15:48.431Z,-0.78
2019-02-15T03:18:15.912Z,-0.82
2019-02-15T03:20:43.314Z,-0.86
2019-02-15T03:23:10.812Z,-0.96
2019-02-15T03:25:38.200Z,-0.96
2019-02-15T03:28:05.656Z,-0.84
2019-02-15T03:30:33.105Z,-0.96
2019-02-15T03:33:00.599Z,-0.92
2019-02-15T03:35:28.016Z,-0.91
2019-02-15T03:38:13.499Z,-0.91
2019-02-15T03:40:44.013Z,-0.92
2019-02-15T03:43:11.545Z,-0.70
2019-02-15T03:45:38.907Z,-0.90
2019-02-15T03:48:06.332Z,-0.85
2019-02-15T03:50:33.731Z,-0.91
2019-02-15T03:53:01.233Z,-0.77
2019-02-15T03:55:28.753Z,-0.68
2019-02-15T03:57:56.225Z,-0.76
2019-02-15T04:00:23.630Z,-0.83
2019-02-15T04:02:51.091Z,-0.88
2019-02-15T04:05:18.574Z,-1.02
2019-02-15T04:07:46.071Z,-1.00
2019-02-15T04:10:13.450Z,-1.01
2019-02-15T04:12:40.944Z,-1.09
2019-02-15T04:15:08.531Z,-1.09
2019-02-15T04:17:36.062Z,-1.05
2019-02-15T04:20:04.381Z,-0.87
2019-02-15T04:22:31.815Z,-0.86
2019-02-15T04:24:59.221Z,-1.02
2019-02-15T04:27:26.801Z,-1.06
2019-02-15T04:29:55.348Z,-0.92
2019-02-15T04:32:22.985Z,-0.74
2019-02-15T04:34:51.985Z,-0.57
2019-02-15T04:37:19.668Z,-0.41
2019-02-15T04:39:47.246Z,-0.16
2019-02-15T04:42:19.209Z,-0.19
2019-02-15T04:44:53.595Z,-0.17
2019-02-15T04:47:26.021Z,-0.21
2019-02-15T04:50:00.780Z,-0.35
2019-02-15T04:52:28.181Z,-0.27
2019-02-15T04:54:55.625Z,-0.22
2019-02-15T04:57:23.020Z,-0.31
2019-02-15T04:59:50.500Z,-0.27
2019-02-15T05:02:17.930Z,-0.18
2019-02-15T05:04:45.391Z,-0.15
2019-02-15T05:07:12.812Z,-0.07
2019-02-15T05:09:40.350Z,-0.02
2019-02-15T05:12:07.780Z,-0.04
2019-02-15T05:14:35.215Z,-0.04
2019-02-15T05:17:02.767Z,-0.41
2019-02-15T05:19:30.195Z,-0.60
2019-02-15T05:21:57.610Z,-0.71
2019-02-15T05:24:27.571Z,-0.65
2019-02-15T05:26:55.050Z,-0.73
2019-02-15T05:29:22.485Z,-0.78
2019-02-15T05:31:50.252Z,-0.86
2019-02-15T05:34:17.782Z,-0.69
2019-02-15T05:36:45.258Z,-0.61
2019-02-15T05:39:12.705Z,-0.50
2019-02-15T05:41:40.105Z,-0.51
2019-02-15T05:44:07.558Z,-0.63
2019-02-15T05:46:34.935Z,-0.62
2019-02-15T05:49:02.395Z,-0.48
2019-02-15T05:51:29.800Z,-0.47
2019-02-15T05:53:57.680Z,-0.52
2019-02-15T05:56:25.066Z,-0.40
2019-02-15T05:58:52.515Z,-0.55
2019-02-15T06:01:20.954Z,-0.84
2019-02-15T06:03:48.409Z,-0.92
2019-02-15T06:06:15.841Z,-0.98
2019-02-15T06:08:43.235Z,-0.97
2019-02-15T06:11:10.722Z,-1.03
2019-02-15T06:13:38.135Z,-1.09
2019-02-15T06:16:05.641Z,-1.06
2019-02-15T06:18:33.115Z,-1.11
2019-02-15T06:21:00.546Z,-1.16
2019-02-15T06:23:27.941Z,-1.12
2019-02-15T06:25:55.491Z,-1.06
2019-02-15T06:28:22.864Z,-1.04
2019-02-15T06:30:50.351Z,-1.02
2019-02-15T06:33:17.750Z,-0.82
2019-02-15T06:35:45.286Z,-0.68
2019-02-15T06:38:12.867Z,-0.43
2019-02-15T06:40:40.401Z,-0.42
2019-02-15T06:43:07.785Z,-0.37
2019-02-15T06:45:35.209Z,-0.39
2019-02-15T06:48:02.610Z,-0.37
2019-02-15T06:50:30.052Z,-0.34
2019-02-15T06:52:57.552Z,-0.50
2019-02-15T06:55:25.070Z,-0.60
2019-02-15T06:57:52.466Z,-0.61
2019-02-15T07:00:43.285Z,-0.23
2019-02-15T07:03:24.411Z,0.53
2019-02-15T07:05:51.825Z,1.59
2019-02-15T07:08:19.272Z,2.23
2019-02-15T07:10:46.760Z,2.66
2019-02-15T07:13:14.229Z,3.37
2019-02-15T07:15:41.755Z,3.50
2019-02-15T07:18:09.176Z,4.44
2019-02-15T07:20:36.682Z,3.95
2019-02-15T07:23:04.165Z,4.38
2019-02-15T07:25:31.605Z,4.72
2019-02-15T07:27:59.400Z,5.08
2019-02-15T07:30:26.870Z,5.25
2019-02-15T07:32:54.285Z,5.55
2019-02-15T07:35:21.780Z,6.14
2019-02-15T07:37:49.271Z,6.05
2019-02-15T07:40:16.751Z,6.18
2019-02-15T07:42:44.170Z,6.54
2019-02-15T07:45:45.585Z,7.49
2019-02-15T07:49:11.340Z,8.13
2019-02-15T07:52:01.956Z,7.78
2019-02-15T07:54:50.283Z,8.76
2019-02-15T07:57:17.865Z,9.16
2019-02-15T07:59:45.341Z,8.32
2019-02-15T08:02:12.810Z,8.35
2019-02-15T08:05:31.958Z,8.87
2019-02-15T08:08:00.435Z,9.02
2019-02-15T08:14:48.275Z,10.14
2019-02-15T08:17:15.875Z,10.21
2019-02-15T08:19:43.583Z,9.31
2019-02-15T08:29:46.538Z,8.50
2019-02-15T08:32:44.360Z,7.85
2019-02-15T08:39:04.761Z,5.91
2019-02-15T08:45:17.302Z,5.69
2019-02-15T08:48:06.098Z,5.37
2019-02-15T08:54:23.365Z,5.31
2019-02-15T09:00:19.167Z,5.42
2019-02-15T09:07:03.718Z,5.63
2019-02-15T09:10:21.533Z,5.70
2019-02-15T09:13:35.302Z,5.68
2019-02-15T09:20:18.875Z,5.71
2019-02-15T09:23:12.407Z,5.89
2019-02-15T09:26:18.405Z,6.16
2019-02-15T09:29:29.719Z,5.95
2019-02-15T09:32:13.417Z,6.00
2019-02-15T09:35:05.120Z,5.86
2019-02-15T09:37:50.156Z,5.90
2019-02-15T09:41:03.142Z,6.24
2019-02-15T09:43:53.570Z,6.33
2019-02-15T09:47:09.185Z,6.34
2019-02-15T09:49:48.465Z,6.39
2019-02-15T09:55:03.580Z,6.59
2019-02-15T09:57:36.283Z,6.74
2019-02-15T10:00:04.474Z,6.94
2019-02-15T10:02:32.178Z,6.79
2019-02-15T10:04:59.799Z,6.92
2019-02-15T10:07:27.700Z,7.19
2019-02-15T10:09:55.609Z,7.14
2019-02-15T10:12:23.265Z,7.20
2019-02-15T10:14:50.815Z,7.25
2019-02-15T10:17:18.425Z,7.35
2019-02-15T10:19:45.870Z,7.61
2019-02-15T10:22:13.335Z,7.73
2019-02-15T10:24:40.762Z,7.81
2019-02-15T10:27:08.235Z,7.91
2019-02-15T10:29:35.850Z,8.08
2019-02-15T10:32:03.487Z,8.15
2019-02-15T10:34:31.184Z,8.30
2019-02-15T10:36:58.656Z,8.41
2019-02-15T10:39:26.753Z,8.49
2019-02-15T10:41:57.438Z,8.45
2019-02-15T10:44:26.259Z,8.72
2019-02-15T10:46:54.008Z,8.59
2019-02-15T10:49:21.506Z,8.60
2019-02-15T10:51:49.028Z,8.69
2019-02-15T10:54:21.179Z,8.72
2019-02-15T10:56:48.682Z,8.94
2019-02-15T10:59:16.161Z,9.00
2019-02-15T11:01:43.670Z,9.01
2019-02-15T11:04:11.345Z,9.13
2019-02-15T11:06:38.949Z,9.17
2019-02-15T11:09:10.190Z,9.28
2019-02-15T11:11:38.176Z,9.38
2019-02-15T11:14:06.193Z,9.47
2019-02-15T11:16:33.748Z,9.60
2019-02-15T11:19:01.395Z,9.72
2019-02-15T11:21:33.403Z,9.71
2019-02-15T11:24:06.877Z,9.94
2019-02-15T11:26:34.444Z,10.10
2019-02-15T11:29:02.130Z,10.06
2019-02-15T11:31:29.955Z,10.09
2019-02-15T11:33:57.501Z,10.15
2019-02-15T11:36:27.240Z,10.18
2019-02-15T11:38:54.934Z,10.43
2019-02-15T11:41:23.814Z,10.68
2019-02-15T11:43:51.410Z,10.95
2019-02-15T11:46:18.916Z,10.98
2019-02-15T11:48:46.324Z,11.00
2019-02-15T11:51:13.825Z,10.80
2019-02-15T11:53:41.282Z,10.92
2019-02-15T11:56:09.955Z,11.00
2019-02-15T11:58:37.541Z,10.99
2019-02-15T12:01:06.727Z,11.18
2019-02-15T12:03:34.281Z,11.39
2019-02-15T12:06:03.804Z,11.28
2019-02-15T12:08:33.131Z,11.27
2019-02-15T12:11:01.060Z,11.31
2019-02-15T12:13:28.577Z,11.37
2019-02-15T12:15:56.488Z,11.53
2019-02-15T12:18:24.147Z,11.60
2019-02-15T12:20:51.630Z,11.57
2019-02-15T12:23:19.151Z,11.71
2019-02-15T12:25:49.656Z,11.63
2019-02-15T12:29:04.469Z,11.71
2019-02-15T12:31:39.306Z,11.72
2019-02-15T12:34:11.619Z,11.89
2019-02-15T12:37:28.457Z,11.91
2019-02-15T12:41:04.685Z,12.05
2019-02-15T12:43:37.909Z,12.13
2019-02-15T12:46:05.468Z,12.14
2019-02-15T12:49:00.689Z,12.29
2019-02-15T12:55:38.768Z,12.31
2019-02-15T12:58:09.705Z,12.41
2019-02-15T13:01:21.606Z,12.39
2019-02-15T13:03:49.410Z,12.57
2019-02-15T13:06:17.204Z,12.66
2019-02-15T13:08:44.748Z,12.74
2019-02-15T13:11:32.334Z,12.74
2019-02-15T13:13:59.936Z,12.89
2019-02-15T13:16:28.165Z,12.96
2019-02-15T13:18:57.033Z,12.98
2019-02-15T13:21:25.649Z,13.10
2019-02-15T13:23:53.155Z,13.19
2019-02-15T13:26:23.802Z,13.28
2019-02-15T13:28:58.356Z,13.30
2019-02-15T13:31:31.455Z,13.30
2019-02-15T13:34:10.655Z,13.23
2019-02-15T13:36:40.990Z,13.35
2019-02-15T13:39:09.924Z,13.33
2019-02-15T13:41:43.587Z,13.43
2019-02-15T13:44:11.460Z,13.46
2019-02-15T13:46:39.001Z,13.51
2019-02-15T13:49:06.615Z,13.51
2019-02-15T13:51:34.349Z,13.53
2019-02-15T13:54:02.343Z,13.58
2019-02-15T13:56:29.770Z,13.62
2019-02-15T13:58:57.255Z,13.63
2019-02-15T14:01:24.767Z,13.70
2019-02-15T14:04:11.894Z,13.71
2019-02-15T14:06:39.556Z,13.63
2019-02-15T14:09:14.365Z,13.70
2019-02-15T14:11:41.966Z,13.73
2019-02-15T14:14:09.440Z,13.73
2019-02-15T14:17:13.380Z,13.81
2019-02-15T14:19:42.801Z,13.77
2019-02-15T14:22:10.288Z,13.82
2019-02-15T14:24:37.785Z,13.85
2019-02-15T14:27:05.275Z,13.82
2019-02-15T14:29:32.744Z,13.79
2019-02-15T14:32:00.179Z,13.90
2019-02-15T14:34:27.600Z,14.00
2019-02-15T14:36:55.460Z,13.94
2019-02-15T14:39:22.921Z,13.98
2019-02-15T14:41:50.406Z,14.02
2019-02-15T14:44:17.815Z,13.95
2019-02-15T14:46:45.315Z,13.99
2019-02-15T14:49:12.766Z,13.96
2019-02-15T14:51:40.221Z,13.91
2019-02-15T14:54:07.710Z,13.96
2019-02-15T14:56:35.300Z,13.95
2019-02-15T14:59:02.731Z,13.90
2019-02-15T15:01:30.171Z,14.02
2019-02-15T15:03:57.586Z,13.96
2019-02-15T15:06:25.061Z,13.96
2019-02-15T15:08:52.582Z,13.96
2019-02-15T15:11:20.276Z,13.88
2019-02-15T15:13:47.670Z,13.91
2019-02-15T15:16:15.175Z,13.80
2019-02-15T15:18:42.600Z,13.79
2019-02-15T15:21:47.240Z,13.72
2019-02-15T15:28:46.889Z,13.71
2019-02-15T15:31:12.886Z,13.62
2019-02-15T15:33:49.044Z,13.62
2019-02-15T15:36:18.275Z,13.53
2019-02-15T15:38:45.852Z,13.55
2019-02-15T15:41:41.355Z,13.60
2019-02-15T15:44:08.866Z,13.44
2019-02-15T15:47:21.408Z,13.32
2019-02-15T15:50:10.341Z,13.34
2019-02-15T15:52:37.826Z,13.35
2019-02-15T15:56:16.239Z,13.28
2019-02-15T15:58:41.666Z,13.19
2019-02-15T16:02:05.170Z,13.01
2019-02-15T16:04:32.846Z,12.95
2019-02-15T16:07:00.371Z,12.94
2019-02-15T16:09:27.883Z,12.81
2019-02-15T16:11:55.533Z,12.75
2019-02-15T16:15:15.023Z,12.64
2019-02-15T16:17:30.267Z,12.63
2019-02-15T16:19:57.851Z,12.48
2019-02-15T16:22:26.049Z,12.36
2019-02-15T16:24:53.985Z,12.30
2019-02-15T16:27:21.476Z,12.25
2019-02-15T16:29:49.295Z,12.16
2019-02-15T16:32:16.920Z,12.11
2019-02-15T16:34:44.645Z,12.03
2019-02-15T16:37:12.313Z,11.95
2019-02-15T16:39:39.911Z,11.85
2019-02-15T16:42:07.480Z,11.75
2019-02-15T16:44:34.930Z,11.65
2019-02-15T16:47:02.641Z,11.60
2019-02-15T16:49:30.330Z,11.61
2019-02-15T16:51:57.987Z,11.48
2019-02-15T16:54:25.734Z,11.43
2019-02-15T16:56:53.387Z,11.32
2019-02-15T16:59:21.143Z,11.20
2019-02-15T17:01:48.843Z,11.06
2019-02-15T17:04:16.403Z,10.91
2019-02-15T17:06:44.235Z,10.75
2019-02-15T17:09:18.021Z,10.62
2019-02-15T17:11:45.789Z,10.55
2019-02-15T17:14:13.685Z,10.64
2019-02-15T17:16:41.435Z,10.69
2019-02-15T17:19:09.165Z,10.63
2019-02-15T17:21:36.816Z,10.51
2019-02-15T17:24:04.735Z,10.49
2019-02-15T17:26:32.610Z,10.40
2019-02-15T17:29:00.380Z,10.35
2019-02-15T17:31:28.165Z,10.29
2019-02-15T17:33:56.120Z,10.26
2019-02-15T17:36:23.929Z,10.18
2019-02-15T17:38:51.636Z,10.16
2019-02-15T17:41:19.573Z,10.16
2019-02-15T17:43:47.388Z,10.12
2019-02-15T17:46:15.181Z,10.10
2019-02-15T17:48:42.883Z,9.97
2019-02-15T17:51:10.461Z,10.09
2019-02-15T17:53:38.265Z,10.20
2019-02-15T17:56:05.970Z,10.13
2019-02-15T17:58:33.883Z,10.32
2019-02-15T18:01:08.195Z,10.32
2019-02-15T18:03:43.744Z,10.29
2019-02-15T18:06:19.797Z,10.16
2019-02-15T18:08:55.479Z,10.47
2019-02-15T18:11:27.715Z,10.75
2019-02-15T18:13:55.406Z,10.58
2019-02-15T18:16:23.309Z,10.65
2019-02-15T18:19:10.126Z,10.61
2019-02-15T18:21:39.681Z,10.76
2019-02-15T18:24:07.550Z,10.91
2019-02-15T18:26:35.296Z,10.89
2019-02-15T18:29:09.389Z,10.60
2019-02-15T18:31:41.514Z,10.72
2019-02-15T18:35:35.919Z,10.62
2019-02-15T18:38:03.851Z,10.25
2019-02-15T18:40:50.971Z,9.96
2019-02-15T18:43:19.170Z,9.86
2019-02-15T18:45:47.054Z,9.73
2019-02-15T18:48:15.012Z,9.61
2019-02-15T18:50:55.541Z,9.61
2019-02-15T18:57:31.395Z,9.68
2019-02-15T19:00:16.915Z,9.86
2019-02-15T19:02:52.900Z,9.91
2019-02-15T19:05:32.920Z,10.01
2019-02-15T19:08:22.270Z,9.91
2019-02-15T19:27:56.109Z,9.76
2019-02-15T19:31:18.397Z,9.69
2019-02-15T19:47:52.530Z,9.52
2019-02-15T19:50:26.803Z,9.42
2019-02-15T19:53:34.965Z,9.77
2019-02-15T19:56:09.739Z,9.56
2019-02-15T19:59:01.980Z,9.73
2019-02-15T20:01:44.057Z,9.92
2019-02-15T20:04:19.410Z,10.12
2019-02-15T20:07:11.054Z,10.17
2019-02-15T20:09:53.006Z,10.12
2019-02-15T20:12:32.224Z,10.17
2019-02-15T20:15:23.000Z,10.02
2019-02-15T20:18:08.966Z,10.12
2019-02-15T20:20:50.992Z,9.97
2019-02-15T20:23:26.322Z,10.19
2019-02-15T20:26:07.246Z,10.20
2019-02-15T20:29:08.269Z,10.11
2019-02-15T20:31:36.235Z,9.81
2019-02-15T20:34:04.295Z,9.69
2019-02-15T20:36:32.175Z,9.71
2019-02-15T20:39:00.145Z,9.64
2019-02-15T20:57:15.720Z,8.43
2019-02-15T23:17:58.887Z,6.93
2019-02-15T23:20:26.305Z,7.09
2019-02-15T23:22:53.758Z,6.71
2019-02-15T23:25:21.251Z,6.34
2019-02-15T23:27:58.566Z,5.43
2019-02-15T23:30:39.575Z,5.30
2019-02-15T23:33:12.245Z,5.48
2019-02-15T23:35:45.235Z,5.27
2019-02-15T23:38:25.909Z,5.23
2019-02-15T23:41:02.395Z,5.30
2019-02-15T23:43:36.368Z,5.10
2019-02-15T23:46:11.304Z,5.09
2019-02-15T23:48:39.235Z,5.05
2019-02-15T23:51:07.605Z,5.05
2019-02-15T23:53:35.099Z,5.31
2019-02-15T23:56:02.580Z,4.87
2019-02-15T23:58:30.001Z,4.53
